| Date | Time | Temp. (oF) | Dew Point (oF) | Rel. Hum. (%) | Press. (in.) | Wind Dir. | Wind Speed (mph) | Hourly Rainfall (in.) |
|
|---|---|---|---|---|---|---|---|---|---|
| 1 | 02/12 | 00:00 | 17 | 3 | 54 | 30.41 | NW | 2 | 0.00 |
| 2 | 02/11 | 23:00 | 17 | 3 | 54 | 30.41 | NNW | 4 | 0.00 |
| 3 | 02/11 | 22:00 | 17 | 3 | 54 | 30.41 | N | 5 | 0.00 |
| 4 | 02/11 | 21:00 | 17 | 2 | 53 | 30.41 | NNW | 1 | 0.00 |
| 5 | 02/11 | 20:00 | 18 | 2 | 50 | 30.38 | NW | 3 | 0.00 |
| 6 | 02/11 | 19:00 | 19 | 2 | 49 | 30.38 | N | 4 | 0.00 |
| 7 | 02/11 | 18:00 | 20 | 2 | 46 | 30.36 | NW | 5 | 0.00 |
| 8 | 02/11 | 17:00 | 22 | 2 | 42 | 30.32 | NNW | 5 | 0.00 |
| 9 | 02/11 | 16:00 | 22 | 0 | 39 | 30.29 | NW | 8 | 0.00 |
| 10 | 02/11 | 15:00 | 22 | 0 | 39 | 30.30 | WNW | 12 | 0.00 |
| 11 | 02/11 | 14:00 | 21 | 0 | 40 | 30.31 | NW | 15 | 0.00 |
| 12 | 02/11 | 13:00 | 19 | -1 | 40 | 30.33 | WSW | 9 | 0.00 |
| 13 | 02/11 | 12:00 | 17 | -2 | 41 | 30.36 | WSW | 8 | 0.00 |
| 14 | 02/11 | 11:00 | 16 | -4 | 40 | 30.38 | WNW | 14 | 0.00 |
| 15 | 02/11 | 10:00 | 14 | -4 | 42 | 30.39 | WNW | 12 | 0.00 |
| 16 | 02/11 | 09:00 | 12 | -5 | 45 | 30.39 | NW | 13 | 0.00 |
| 17 | 02/11 | 08:00 | 10 | -7 | 45 | 30.37 | NW | 7 | 0.00 |
| 18 | 02/11 | 07:00 | 9 | -7 | 46 | 30.34 | W | 3 | 0.00 |
| 19 | 02/11 | 06:00 | 9 | -8 | 45 | 30.31 | WNW | 7 | 0.00 |
| 20 | 02/11 | 05:00 | 9 | -8 | 44 | 30.28 | WNW | 13 | 0.00 |
| 21 | 02/11 | 04:00 | 10 | -7 | 44 | 30.25 | WNW | 21 | 0.00 |
| 22 | 02/11 | 03:00 | 10 | -7 | 44 | 30.24 | WNW | 14 | 0.00 |
| 23 | 02/11 | 02:00 | 11 | -6 | 45 | 30.22 | W | 10 | 0.00 |
| 24 | 02/11 | 01:00 | 11 | -8 | 41 | 30.20 | NW | 17 | 0.00 |